sensor_id;sensor_type;location;lat;lon;timestamp;temperature;humidity
70986;DHT22;58645;43.068;25.610;2023-05-20T00:02:14;12.10;99.90
70986;DHT22;58645;43.068;25.610;2023-05-20T00:04:40;12.10;99.90
70986;DHT22;58645;43.068;25.610;2023-05-20T00:07:06;12.10;99.90
70986;DHT22;58645;43.068;25.610;2023-05-20T00:09:32;12.00;99.90
70986;DHT22;58645;43.068;25.610;2023-05-20T00:11:57;12.10;99.90
70986;DHT22;58645;43.068;25.610;2023-05-20T00:14:23;12.10;99.90
70986;DHT22;58645;43.068;25.610;2023-05-20T00:16:49;12.10;99.90
70986;DHT22;58645;43.068;25.610;2023-05-20T00:19:14;12.10;99.90
70986;DHT22;58645;43.068;25.610;2023-05-20T00:21:41;12.10;99.90
70986;DHT22;58645;43.068;25.610;2023-05-20T00:24:06;12.10;99.90
70986;DHT22;58645;43.068;25.610;2023-05-20T00:26:32;12.10;99.90
70986;DHT22;58645;43.068;25.610;2023-05-20T00:28:58;12.10;99.90
70986;DHT22;58645;43.068;25.610;2023-05-20T00:31:23;12.20;99.90
70986;DHT22;58645;43.068;25.610;2023-05-20T00:33:49;12.10;99.90
70986;DHT22;58645;43.068;25.610;2023-05-20T00:36:15;12.20;99.90
70986;DHT22;58645;43.068;25.610;2023-05-20T00:38:41;12.20;99.90
70986;DHT22;58645;43.068;25.610;2023-05-20T00:41:07;12.20;99.90
70986;DHT22;58645;43.068;25.610;2023-05-20T00:43:33;12.10;99.90
70986;DHT22;58645;43.068;25.610;2023-05-20T00:45:59;12.20;99.90
70986;DHT22;58645;43.068;25.610;2023-05-20T00:48:29;12.20;99.90
70986;DHT22;58645;43.068;25.610;2023-05-20T00:50:57;12.10;99.90
70986;DHT22;58645;43.068;25.610;2023-05-20T00:53:23;12.20;99.90
70986;DHT22;58645;43.068;25.610;2023-05-20T00:55:49;12.20;99.90
70986;DHT22;58645;43.068;25.610;2023-05-20T00:58:14;12.30;99.90
70986;DHT22;58645;43.068;25.610;2023-05-20T01:00:40;12.30;99.90
70986;DHT22;58645;43.068;25.610;2023-05-20T01:03:07;12.20;99.90
70986;DHT22;58645;43.068;25.610;2023-05-20T01:05:32;12.20;99.90
70986;DHT22;58645;43.068;25.610;2023-05-20T01:07:58;12.20;99.90
70986;DHT22;58645;43.068;25.610;2023-05-20T01:10:24;12.20;99.90
70986;DHT22;58645;43.068;25.610;2023-05-20T01:12:56;12.20;99.90
70986;DHT22;58645;43.068;25.610;2023-05-20T01:15:26;12.20;99.90
70986;DHT22;58645;43.068;25.610;2023-05-20T01:18:02;12.20;99.90
70986;DHT22;58645;43.068;25.610;2023-05-20T01:20:30;12.20;99.90
70986;DHT22;58645;43.068;25.610;2023-05-20T01:22:57;12.10;99.90
70986;DHT22;58645;43.068;25.610;2023-05-20T01:25:24;12.00;99.90
70986;DHT22;58645;43.068;25.610;2023-05-20T01:27:51;11.90;99.90
70986;DHT22;58645;43.068;25.610;2023-05-20T01:30:18;11.90;99.90
70986;DHT22;58645;43.068;25.610;2023-05-20T01:32:52;11.90;99.90
70986;DHT22;58645;43.068;25.610;2023-05-20T01:35:19;11.70;99.90
70986;DHT22;58645;43.068;25.610;2023-05-20T01:37:47;11.70;99.90
70986;DHT22;58645;43.068;25.610;2023-05-20T01:40:15;11.70;99.90
70986;DHT22;58645;43.068;25.610;2023-05-20T01:42:42;11.70;99.90
70986;DHT22;58645;43.068;25.610;2023-05-20T01:45:09;11.60;99.90
70986;DHT22;58645;43.068;25.610;2023-05-20T01:47:34;11.60;99.90
70986;DHT22;58645;43.068;25.610;2023-05-20T01:50:00;11.60;99.90
70986;DHT22;58645;43.068;25.610;2023-05-20T01:52:26;11.60;99.90
70986;DHT22;58645;43.068;25.610;2023-05-20T01:54:52;11.50;99.90
70986;DHT22;58645;43.068;25.610;2023-05-20T01:57:19;11.50;99.90
70986;DHT22;58645;43.068;25.610;2023-05-20T01:59:45;11.50;99.90
70986;DHT22;58645;43.068;25.610;2023-05-20T02:02:10;11.50;99.90
70986;DHT22;58645;43.068;25.610;2023-05-20T02:04:36;11.50;99.90
70986;DHT22;58645;43.068;25.610;2023-05-20T02:07:02;11.50;99.90
70986;DHT22;58645;43.068;25.610;2023-05-20T02:09:28;11.40;99.90
70986;DHT22;58645;43.068;25.610;2023-05-20T02:11:53;11.40;99.90
70986;DHT22;58645;43.068;25.610;2023-05-20T02:14:19;11.30;99.90
70986;DHT22;58645;43.068;25.610;2023-05-20T02:16:48;11.30;99.90
70986;DHT22;58645;43.068;25.610;2023-05-20T02:19:13;11.30;99.90
70986;DHT22;58645;43.068;25.610;2023-05-20T02:21:44;11.30;99.90
70986;DHT22;58645;43.068;25.610;2023-05-20T02:24:11;11.20;99.90
70986;DHT22;58645;43.068;25.610;2023-05-20T02:26:37;11.20;99.90
70986;DHT22;58645;43.068;25.610;2023-05-20T02:29:03;11.20;99.90
70986;DHT22;58645;43.068;25.610;2023-05-20T02:31:29;11.10;99.90
70986;DHT22;58645;43.068;25.610;2023-05-20T02:33:55;11.10;99.90
70986;DHT22;58645;43.068;25.610;2023-05-20T02:36:21;11.10;99.90
70986;DHT22;58645;43.068;25.610;2023-05-20T02:38:47;11.10;99.90
70986;DHT22;58645;43.068;25.610;2023-05-20T02:41:13;11.10;99.90
70986;DHT22;58645;43.068;25.610;2023-05-20T02:43:39;11.10;99.90
70986;DHT22;58645;43.068;25.610;2023-05-20T02:46:05;11.20;99.90
70986;DHT22;58645;43.068;25.610;2023-05-20T02:48:31;11.20;99.90
70986;DHT22;58645;43.068;25.610;2023-05-20T02:50:58;11.20;99.90
70986;DHT22;58645;43.068;25.610;2023-05-20T02:53:24;11.30;99.90
70986;DHT22;58645;43.068;25.610;2023-05-20T02:55:50;11.20;99.90
70986;DHT22;58645;43.068;25.610;2023-05-20T02:58:16;11.30;99.90
70986;DHT22;58645;43.068;25.610;2023-05-20T03:00:42;11.30;99.90
70986;DHT22;58645;43.068;25.610;2023-05-20T03:03:08;11.30;99.90
70986;DHT22;58645;43.068;25.610;2023-05-20T03:05:35;11.30;99.90
70986;DHT22;58645;43.068;25.610;2023-05-20T03:08:12;11.30;99.90
70986;DHT22;58645;43.068;25.610;2023-05-20T03:10:39;11.30;99.90
70986;DHT22;58645;43.068;25.610;2023-05-20T03:13:06;11.20;99.90
70986;DHT22;58645;43.068;25.610;2023-05-20T03:15:34;11.10;99.90
70986;DHT22;58645;43.068;25.610;2023-05-20T03:18:00;11.10;99.90
70986;DHT22;58645;43.068;25.610;2023-05-20T03:20:27;11.10;99.90
70986;DHT22;58645;43.068;25.610;2023-05-20T03:22:54;11.10;99.90
70986;DHT22;58645;43.068;25.610;2023-05-20T03:25:21;11.10;99.90
70986;DHT22;58645;43.068;25.610;2023-05-20T03:27:47;11.10;99.90
70986;DHT22;58645;43.068;25.610;2023-05-20T03:30:12;11.20;99.90
70986;DHT22;58645;43.068;25.610;2023-05-20T03:32:38;11.20;99.90
70986;DHT22;58645;43.068;25.610;2023-05-20T03:35:05;11.20;99.90
70986;DHT22;58645;43.068;25.610;2023-05-20T03:37:31;11.20;99.90
70986;DHT22;58645;43.068;25.610;2023-05-20T03:39:57;11.20;99.90
70986;DHT22;58645;43.068;25.610;2023-05-20T03:42:22;11.20;99.90
70986;DHT22;58645;43.068;25.610;2023-05-20T03:44:48;11.30;99.90
70986;DHT22;58645;43.068;25.610;2023-05-20T03:47:13;11.20;99.90
70986;DHT22;58645;43.068;25.610;2023-05-20T03:49:39;11.30;99.90
70986;DHT22;58645;43.068;25.610;2023-05-20T03:52:06;11.30;99.90
70986;DHT22;58645;43.068;25.610;2023-05-20T03:54:32;11.30;99.90
70986;DHT22;58645;43.068;25.610;2023-05-20T03:56:59;11.20;99.90
70986;DHT22;58645;43.068;25.610;2023-05-20T03:59:26;11.20;99.90
70986;DHT22;58645;43.068;25.610;2023-05-20T04:01:52;11.10;99.90
70986;DHT22;58645;43.068;25.610;2023-05-20T04:04:18;11.20;99.90
70986;DHT22;58645;43.068;25.610;2023-05-20T04:06:44;11.20;99.90
70986;DHT22;58645;43.068;25.610;2023-05-20T04:09:10;11.20;99.90
70986;DHT22;58645;43.068;25.610;2023-05-20T04:11:36;11.20;99.90
70986;DHT22;58645;43.068;25.610;2023-05-20T04:14:01;11.30;99.90
70986;DHT22;58645;43.068;25.610;2023-05-20T04:16:27;11.30;99.90
70986;DHT22;58645;43.068;25.610;2023-05-20T04:18:54;11.40;99.90
70986;DHT22;58645;43.068;25.610;2023-05-20T04:21:20;11.50;99.90
70986;DHT22;58645;43.068;25.610;2023-05-20T04:23:46;11.60;99.90
70986;DHT22;58645;43.068;25.610;2023-05-20T04:26:12;11.90;99.90
70986;DHT22;58645;43.068;25.610;2023-05-20T04:28:38;12.00;99.90
70986;DHT22;58645;43.068;25.610;2023-05-20T04:31:06;12.10;99.90
70986;DHT22;58645;43.068;25.610;2023-05-20T04:33:32;12.30;99.90
70986;DHT22;58645;43.068;25.610;2023-05-20T04:36:02;12.30;99.90
70986;DHT22;58645;43.068;25.610;2023-05-20T04:38:30;12.30;99.90
70986;DHT22;58645;43.068;25.610;2023-05-20T04:41:00;12.30;99.90
70986;DHT22;58645;43.068;25.610;2023-05-20T04:43:27;12.40;99.90
70986;DHT22;58645;43.068;25.610;2023-05-20T04:45:55;12.40;99.90
70986;DHT22;58645;43.068;25.610;2023-05-20T04:48:21;12.40;99.90
70986;DHT22;58645;43.068;25.610;2023-05-20T04:50:50;12.60;99.90
70986;DHT22;58645;43.068;25.610;2023-05-20T04:53:17;12.70;99.90
70986;DHT22;58645;43.068;25.610;2023-05-20T04:55:44;12.80;99.90
70986;DHT22;58645;43.068;25.610;2023-05-20T04:58:10;13.20;99.90
70986;DHT22;58645;43.068;25.610;2023-05-20T05:00:43;13.50;99.90
70986;DHT22;58645;43.068;25.610;2023-05-20T05:03:09;13.80;99.90
70986;DHT22;58645;43.068;25.610;2023-05-20T05:05:37;13.90;99.90
70986;DHT22;58645;43.068;25.610;2023-05-20T05:08:04;14.00;99.90
70986;DHT22;58645;43.068;25.610;2023-05-20T05:10:31;14.20;99.90
70986;DHT22;58645;43.068;25.610;2023-05-20T05:12:57;14.40;99.90
70986;DHT22;58645;43.068;25.610;2023-05-20T05:15:23;14.50;99.90
70986;DHT22;58645;43.068;25.610;2023-05-20T05:17:49;14.40;99.90
70986;DHT22;58645;43.068;25.610;2023-05-20T05:20:15;14.20;99.90
70986;DHT22;58645;43.068;25.610;2023-05-20T05:22:41;14.20;99.90
70986;DHT22;58645;43.068;25.610;2023-05-20T05:25:07;14.10;99.90
70986;DHT22;58645;43.068;25.610;2023-05-20T05:27:33;14.20;99.90
70986;DHT22;58645;43.068;25.610;2023-05-20T05:30:01;14.20;99.90
70986;DHT22;58645;43.068;25.610;2023-05-20T05:32:26;14.50;99.90
70986;DHT22;58645;43.068;25.610;2023-05-20T05:34:52;14.60;99.90
70986;DHT22;58645;43.068;25.610;2023-05-20T05:37:18;14.50;99.90
70986;DHT22;58645;43.068;25.610;2023-05-20T05:39:44;14.60;99.90
70986;DHT22;58645;43.068;25.610;2023-05-20T05:42:09;14.90;99.90
70986;DHT22;58645;43.068;25.610;2023-05-20T05:44:35;15.00;99.90
70986;DHT22;58645;43.068;25.610;2023-05-20T05:47:01;15.20;99.90
70986;DHT22;58645;43.068;25.610;2023-05-20T05:49:27;15.50;99.90
70986;DHT22;58645;43.068;25.610;2023-05-20T05:51:52;15.60;99.90
70986;DHT22;58645;43.068;25.610;2023-05-20T05:54:18;15.50;99.90
70986;DHT22;58645;43.068;25.610;2023-05-20T05:56:45;15.50;99.90
70986;DHT22;58645;43.068;25.610;2023-05-20T05:59:11;15.50;99.90
70986;DHT22;58645;43.068;25.610;2023-05-20T06:01:37;15.60;99.90
70986;DHT22;58645;43.068;25.610;2023-05-20T06:04:03;15.60;99.90
70986;DHT22;58645;43.068;25.610;2023-05-20T06:06:29;15.70;99.90
70986;DHT22;58645;43.068;25.610;2023-05-20T06:08:55;15.90;99.90
70986;DHT22;58645;43.068;25.610;2023-05-20T06:11:22;15.90;99.90
70986;DHT22;58645;43.068;25.610;2023-05-20T06:13:48;16.70;99.90
70986;DHT22;58645;43.068;25.610;2023-05-20T06:16:14;17.70;99.90
70986;DHT22;58645;43.068;25.610;2023-05-20T06:18:41;18.00;99.90
70986;DHT22;58645;43.068;25.610;2023-05-20T06:21:07;18.30;99.90
70986;DHT22;58645;43.068;25.610;2023-05-20T06:23:33;18.70;99.90
70986;DHT22;58645;43.068;25.610;2023-05-20T06:25:59;19.50;99.90
70986;DHT22;58645;43.068;25.610;2023-05-20T06:28:25;19.50;99.90
70986;DHT22;58645;43.068;25.610;2023-05-20T06:30:52;20.00;99.90
70986;DHT22;58645;43.068;25.610;2023-05-20T06:33:19;20.70;99.90
70986;DHT22;58645;43.068;25.610;2023-05-20T06:35:46;21.10;99.90
70986;DHT22;58645;43.068;25.610;2023-05-20T06:38:11;21.60;99.90
70986;DHT22;58645;43.068;25.610;2023-05-20T06:40:37;21.60;99.90
70986;DHT22;58645;43.068;25.610;2023-05-20T06:43:03;21.20;99.90
70986;DHT22;58645;43.068;25.610;2023-05-20T06:45:28;20.70;99.90
70986;DHT22;58645;43.068;25.610;2023-05-20T06:47:54;20.40;99.90
70986;DHT22;58645;43.068;25.610;2023-05-20T06:50:20;20.10;99.90
70986;DHT22;58645;43.068;25.610;2023-05-20T06:52:46;19.70;99.90
70986;DHT22;58645;43.068;25.610;2023-05-20T06:55:12;19.40;99.90
70986;DHT22;58645;43.068;25.610;2023-05-20T06:57:39;19.60;99.90
70986;DHT22;58645;43.068;25.610;2023-05-20T07:00:05;19.40;99.90
70986;DHT22;58645;43.068;25.610;2023-05-20T07:02:32;19.20;99.90
70986;DHT22;58645;43.068;25.610;2023-05-20T07:04:58;19.00;99.90
70986;DHT22;58645;43.068;25.610;2023-05-20T07:07:24;18.80;99.90
70986;DHT22;58645;43.068;25.610;2023-05-20T07:09:51;18.70;99.90
70986;DHT22;58645;43.068;25.610;2023-05-20T07:12:17;18.60;99.90
70986;DHT22;58645;43.068;25.610;2023-05-20T07:14:43;18.60;99.90
70986;DHT22;58645;43.068;25.610;2023-05-20T07:17:09;18.60;99.90
70986;DHT22;58645;43.068;25.610;2023-05-20T07:19:35;18.50;99.90
70986;DHT22;58645;43.068;25.610;2023-05-20T07:22:01;18.50;99.90
70986;DHT22;58645;43.068;25.610;2023-05-20T07:24:27;18.40;99.90
70986;DHT22;58645;43.068;25.610;2023-05-20T07:26:52;18.50;99.90
70986;DHT22;58645;43.068;25.610;2023-05-20T07:29:18;18.70;99.90
70986;DHT22;58645;43.068;25.610;2023-05-20T07:31:44;18.70;99.90
70986;DHT22;58645;43.068;25.610;2023-05-20T07:34:10;18.90;99.90
70986;DHT22;58645;43.068;25.610;2023-05-20T07:36:36;19.20;99.90
70986;DHT22;58645;43.068;25.610;2023-05-20T07:39:03;19.50;99.90
70986;DHT22;58645;43.068;25.610;2023-05-20T07:41:28;19.80;99.90
70986;DHT22;58645;43.068;25.610;2023-05-20T07:43:54;20.50;99.90
70986;DHT22;58645;43.068;25.610;2023-05-20T07:46:20;21.00;99.90
70986;DHT22;58645;43.068;25.610;2023-05-20T07:48:46;21.30;99.90
70986;DHT22;58645;43.068;25.610;2023-05-20T07:51:11;21.40;99.90
70986;DHT22;58645;43.068;25.610;2023-05-20T07:53:37;21.70;99.90
70986;DHT22;58645;43.068;25.610;2023-05-20T07:56:04;21.50;99.90
70986;DHT22;58645;43.068;25.610;2023-05-20T07:58:30;21.30;99.90
70986;DHT22;58645;43.068;25.610;2023-05-20T08:00:56;21.30;99.90
70986;DHT22;58645;43.068;25.610;2023-05-20T08:03:22;21.10;99.90
70986;DHT22;58645;43.068;25.610;2023-05-20T08:05:48;21.00;99.90
70986;DHT22;58645;43.068;25.610;2023-05-20T08:08:14;21.00;99.90
70986;DHT22;58645;43.068;25.610;2023-05-20T08:10:40;21.00;99.90
70986;DHT22;58645;43.068;25.610;2023-05-20T08:13:06;21.00;99.90
70986;DHT22;58645;43.068;25.610;2023-05-20T08:15:32;21.10;99.90
70986;DHT22;58645;43.068;25.610;2023-05-20T08:17:57;21.10;99.90
70986;DHT22;58645;43.068;25.610;2023-05-20T08:20:23;21.10;99.90
70986;DHT22;58645;43.068;25.610;2023-05-20T08:22:51;21.10;99.90
70986;DHT22;58645;43.068;25.610;2023-05-20T08:25:16;21.20;99.90
70986;DHT22;58645;43.068;25.610;2023-05-20T08:27:43;20.90;99.90
70986;DHT22;58645;43.068;25.610;2023-05-20T08:30:09;21.00;99.90
70986;DHT22;58645;43.068;25.610;2023-05-20T08:32:35;21.20;99.90
70986;DHT22;58645;43.068;25.610;2023-05-20T08:35:02;21.30;99.90
70986;DHT22;58645;43.068;25.610;2023-05-20T08:37:28;21.40;99.90
70986;DHT22;58645;43.068;25.610;2023-05-20T08:39:54;21.30;99.90
70986;DHT22;58645;43.068;25.610;2023-05-20T08:42:23;21.20;99.90
70986;DHT22;58645;43.068;25.610;2023-05-20T08:44:51;21.10;99.90
70986;DHT22;58645;43.068;25.610;2023-05-20T08:47:19;21.00;99.90
70986;DHT22;58645;43.068;25.610;2023-05-20T08:49:47;20.80;99.90
70986;DHT22;58645;43.068;25.610;2023-05-20T08:52:13;20.70;99.90
70986;DHT22;58645;43.068;25.610;2023-05-20T08:54:46;20.60;99.90
70986;DHT22;58645;43.068;25.610;2023-05-20T08:57:12;20.70;99.90
70986;DHT22;58645;43.068;25.610;2023-05-20T08:59:39;20.70;99.90
70986;DHT22;58645;43.068;25.610;2023-05-20T09:02:07;20.80;99.90
70986;DHT22;58645;43.068;25.610;2023-05-20T09:04:33;20.90;99.90
70986;DHT22;58645;43.068;25.610;2023-05-20T09:06:58;20.80;99.90
70986;DHT22;58645;43.068;25.610;2023-05-20T09:09:24;20.50;99.90
70986;DHT22;58645;43.068;25.610;2023-05-20T09:11:50;20.30;99.90
70986;DHT22;58645;43.068;25.610;2023-05-20T09:14:16;20.20;99.90
70986;DHT22;58645;43.068;25.610;2023-05-20T09:16:42;20.00;99.90
70986;DHT22;58645;43.068;25.610;2023-05-20T09:19:08;19.90;99.90
70986;DHT22;58645;43.068;25.610;2023-05-20T09:21:34;19.80;99.90
70986;DHT22;58645;43.068;25.610;2023-05-20T09:24:03;19.70;99.90
70986;DHT22;58645;43.068;25.610;2023-05-20T09:26:29;19.40;99.90
70986;DHT22;58645;43.068;25.610;2023-05-20T09:28:56;19.20;99.90
70986;DHT22;58645;43.068;25.610;2023-05-20T09:31:26;19.00;99.90
70986;DHT22;58645;43.068;25.610;2023-05-20T09:33:53;18.90;99.90
70986;DHT22;58645;43.068;25.610;2023-05-20T09:36:19;18.80;99.90
70986;DHT22;58645;43.068;25.610;2023-05-20T09:38:52;18.90;99.90
70986;DHT22;58645;43.068;25.610;2023-05-20T09:41:20;18.80;99.90
70986;DHT22;58645;43.068;25.610;2023-05-20T09:43:49;18.70;99.90
70986;DHT22;58645;43.068;25.610;2023-05-20T09:46:16;18.70;99.90
70986;DHT22;58645;43.068;25.610;2023-05-20T09:48:43;18.60;99.90
70986;DHT22;58645;43.068;25.610;2023-05-20T09:51:10;18.70;99.90
70986;DHT22;58645;43.068;25.610;2023-05-20T09:53:37;18.90;99.90
70986;DHT22;58645;43.068;25.610;2023-05-20T09:56:03;19.00;99.90
70986;DHT22;58645;43.068;25.610;2023-05-20T09:58:29;19.30;99.90
70986;DHT22;58645;43.068;25.610;2023-05-20T10:00:55;19.50;99.90
70986;DHT22;58645;43.068;25.610;2023-05-20T10:03:21;20.10;99.90
70986;DHT22;58645;43.068;25.610;2023-05-20T10:11:42;21.00;99.90
70986;DHT22;58645;43.068;25.610;2023-05-20T10:14:37;21.30;99.90
70986;DHT22;58645;43.068;25.610;2023-05-20T10:17:24;21.80;99.90
70986;DHT22;58645;43.068;25.610;2023-05-20T10:19:59;21.70;99.90
70986;DHT22;58645;43.068;25.610;2023-05-20T10:22:27;21.80;99.90
70986;DHT22;58645;43.068;25.610;2023-05-20T10:25:06;22.10;99.90
70986;DHT22;58645;43.068;25.610;2023-05-20T10:27:50;22.60;99.90
70986;DHT22;58645;43.068;25.610;2023-05-20T10:30:20;23.20;99.90
70986;DHT22;58645;43.068;25.610;2023-05-20T10:32:57;24.10;99.90
70986;DHT22;58645;43.068;25.610;2023-05-20T10:35:26;23.70;97.90
70986;DHT22;58645;43.068;25.610;2023-05-20T10:37:53;24.60;99.90
70986;DHT22;58645;43.068;25.610;2023-05-20T10:40:21;24.90;94.60
70986;DHT22;58645;43.068;25.610;2023-05-20T10:42:47;25.00;87.60
70986;DHT22;58645;43.068;25.610;2023-05-20T10:45:27;25.30;86.60
70986;DHT22;58645;43.068;25.610;2023-05-20T10:47:57;25.60;80.80
70986;DHT22;58645;43.068;25.610;2023-05-20T10:50:34;25.90;76.30
70986;DHT22;58645;43.068;25.610;2023-05-20T10:53:04;26.20;74.20
70986;DHT22;58645;43.068;25.610;2023-05-20T10:55:38;26.60;77.00
70986;DHT22;58645;43.068;25.610;2023-05-20T10:58:04;27.10;73.00
70986;DHT22;58645;43.068;25.610;2023-05-20T11:00:34;27.10;67.10
70986;DHT22;58645;43.068;25.610;2023-05-20T11:03:02;27.00;65.60
70986;DHT22;58645;43.068;25.610;2023-05-20T11:05:29;25.80;68.00
70986;DHT22;58645;43.068;25.610;2023-05-20T11:08:08;25.90;70.60
70986;DHT22;58645;43.068;25.610;2023-05-20T11:10:35;26.30;69.10
70986;DHT22;58645;43.068;25.610;2023-05-20T11:13:04;26.50;69.70
70986;DHT22;58645;43.068;25.610;2023-05-20T11:15:31;26.40;66.70
70986;DHT22;58645;43.068;25.610;2023-05-20T11:18:00;26.30;70.70
70986;DHT22;58645;43.068;25.610;2023-05-20T11:20:26;27.00;71.70
70986;DHT22;58645;43.068;25.610;2023-05-20T11:22:53;27.10;67.40
70986;DHT22;58645;43.068;25.610;2023-05-20T11:25:19;26.50;67.20
70986;DHT22;58645;43.068;25.610;2023-05-20T11:27:46;26.70;64.50
70986;DHT22;58645;43.068;25.610;2023-05-20T11:30:15;26.90;61.60
70986;DHT22;58645;43.068;25.610;2023-05-20T11:32:55;27.20;62.40
70986;DHT22;58645;43.068;25.610;2023-05-20T11:35:24;27.50;60.10
70986;DHT22;58645;43.068;25.610;2023-05-20T11:38:05;27.50;60.90
70986;DHT22;58645;43.068;25.610;2023-05-20T11:40:32;27.70;60.40
70986;DHT22;58645;43.068;25.610;2023-05-20T11:43:00;27.80;59.40
70986;DHT22;58645;43.068;25.610;2023-05-20T11:45:26;28.00;58.50
70986;DHT22;58645;43.068;25.610;2023-05-20T11:48:02;27.80;60.80
70986;DHT22;58645;43.068;25.610;2023-05-20T11:50:33;28.00;59.40
70986;DHT22;58645;43.068;25.610;2023-05-20T11:53:02;28.30;59.30
70986;DHT22;58645;43.068;25.610;2023-05-20T11:55:28;28.40;56.20
70986;DHT22;58645;43.068;25.610;2023-05-20T11:57:57;28.10;58.40
70986;DHT22;58645;43.068;25.610;2023-05-20T12:00:23;28.10;59.50
70986;DHT22;58645;43.068;25.610;2023-05-20T12:02:49;28.20;57.60
70986;DHT22;58645;43.068;25.610;2023-05-20T12:05:15;28.30;57.40
70986;DHT22;58645;43.068;25.610;2023-05-20T12:07:41;27.90;58.10
70986;DHT22;58645;43.068;25.610;2023-05-20T12:10:07;27.40;58.70
70986;DHT22;58645;43.068;25.610;2023-05-20T12:12:33;27.60;59.30
70986;DHT22;58645;43.068;25.610;2023-05-20T12:15:04;27.80;58.40
70986;DHT22;58645;43.068;25.610;2023-05-20T12:17:44;27.50;57.80
70986;DHT22;58645;43.068;25.610;2023-05-20T12:20:15;27.10;60.00
70986;DHT22;58645;43.068;25.610;2023-05-20T12:22:42;27.00;58.70
70986;DHT22;58645;43.068;25.610;2023-05-20T12:25:10;27.40;59.30
70986;DHT22;58645;43.068;25.610;2023-05-20T12:27:36;27.60;58.80
70986;DHT22;58645;43.068;25.610;2023-05-20T12:30:02;27.50;57.30
70986;DHT22;58645;43.068;25.610;2023-05-20T12:32:28;27.60;56.90
70986;DHT22;58645;43.068;25.610;2023-05-20T12:34:54;28.00;56.40
70986;DHT22;58645;43.068;25.610;2023-05-20T12:37:20;28.20;56.00
70986;DHT22;58645;43.068;25.610;2023-05-20T12:39:46;28.40;56.40
70986;DHT22;58645;43.068;25.610;2023-05-20T12:42:12;28.80;54.10
70986;DHT22;58645;43.068;25.610;2023-05-20T12:44:37;28.70;54.60
70986;DHT22;58645;43.068;25.610;2023-05-20T12:47:03;28.00;56.30
70986;DHT22;58645;43.068;25.610;2023-05-20T12:49:29;27.40;57.50
70986;DHT22;58645;43.068;25.610;2023-05-20T12:51:55;26.80;58.70
70986;DHT22;58645;43.068;25.610;2023-05-20T12:54:20;26.50;59.50
70986;DHT22;58645;43.068;25.610;2023-05-20T12:56:46;26.30;60.10
70986;DHT22;58645;43.068;25.610;2023-05-20T12:59:13;26.20;61.40
70986;DHT22;58645;43.068;25.610;2023-05-20T13:01:39;25.90;61.40
70986;DHT22;58645;43.068;25.610;2023-05-20T13:04:05;25.70;62.40
70986;DHT22;58645;43.068;25.610;2023-05-20T13:06:32;25.80;61.30
70986;DHT22;58645;43.068;25.610;2023-05-20T13:08:58;26.10;62.90
70986;DHT22;58645;43.068;25.610;2023-05-20T13:11:23;26.00;61.90
70986;DHT22;58645;43.068;25.610;2023-05-20T13:13:49;26.20;61.70
70986;DHT22;58645;43.068;25.610;2023-05-20T13:16:15;26.40;59.60
70986;DHT22;58645;43.068;25.610;2023-05-20T13:18:43;26.50;59.70
70986;DHT22;58645;43.068;25.610;2023-05-20T13:21:08;26.30;61.30
70986;DHT22;58645;43.068;25.610;2023-05-20T13:23:34;25.90;59.90
70986;DHT22;58645;43.068;25.610;2023-05-20T13:26:01;25.80;62.00
70986;DHT22;58645;43.068;25.610;2023-05-20T13:28:27;25.80;63.20
70986;DHT22;58645;43.068;25.610;2023-05-20T13:30:53;25.80;61.10
70986;DHT22;58645;43.068;25.610;2023-05-20T13:33:18;25.70;62.40
70986;DHT22;58645;43.068;25.610;2023-05-20T13:35:44;25.60;62.50
70986;DHT22;58645;43.068;25.610;2023-05-20T13:38:10;25.50;62.90
70986;DHT22;58645;43.068;25.610;2023-05-20T13:40:36;25.40;61.80
70986;DHT22;58645;43.068;25.610;2023-05-20T13:43:02;25.30;64.10
70986;DHT22;58645;43.068;25.610;2023-05-20T13:45:27;25.10;62.90
70986;DHT22;58645;43.068;25.610;2023-05-20T13:47:54;25.00;62.90
70986;DHT22;58645;43.068;25.610;2023-05-20T13:50:19;25.00;63.60
70986;DHT22;58645;43.068;25.610;2023-05-20T13:52:45;24.90;64.70
70986;DHT22;58645;43.068;25.610;2023-05-20T13:55:11;24.70;66.00
70986;DHT22;58645;43.068;25.610;2023-05-20T13:57:36;24.50;66.60
70986;DHT22;58645;43.068;25.610;2023-05-20T14:00:02;24.20;67.10
70986;DHT22;58645;43.068;25.610;2023-05-20T14:02:29;23.80;67.80
70986;DHT22;58645;43.068;25.610;2023-05-20T14:04:55;23.50;69.50
70986;DHT22;58645;43.068;25.610;2023-05-20T14:07:20;22.20;68.80
70986;DHT22;58645;43.068;25.610;2023-05-20T14:09:46;20.80;75.50
70986;DHT22;58645;43.068;25.610;2023-05-20T14:12:12;19.30;84.80
70986;DHT22;58645;43.068;25.610;2023-05-20T14:14:38;18.40;94.90
70986;DHT22;58645;43.068;25.610;2023-05-20T14:17:03;17.50;99.90
70986;DHT22;58645;43.068;25.610;2023-05-20T14:19:29;17.10;99.90
70986;DHT22;58645;43.068;25.610;2023-05-20T14:21:55;16.60;99.90
70986;DHT22;58645;43.068;25.610;2023-05-20T14:24:23;16.20;99.90
70986;DHT22;58645;43.068;25.610;2023-05-20T14:26:48;16.00;99.90
70986;DHT22;58645;43.068;25.610;2023-05-20T14:29:14;15.90;99.90
70986;DHT22;58645;43.068;25.610;2023-05-20T14:31:40;15.90;99.90
70986;DHT22;58645;43.068;25.610;2023-05-20T14:34:06;15.80;99.90
70986;DHT22;58645;43.068;25.610;2023-05-20T14:36:31;15.60;99.90
70986;DHT22;58645;43.068;25.610;2023-05-20T14:38:57;15.60;99.90
70986;DHT22;58645;43.068;25.610;2023-05-20T14:41:23;15.50;99.90
70986;DHT22;58645;43.068;25.610;2023-05-20T14:43:48;15.30;99.90
70986;DHT22;58645;43.068;25.610;2023-05-20T14:46:14;15.30;99.90
70986;DHT22;58645;43.068;25.610;2023-05-20T14:48:40;15.10;99.90
70986;DHT22;58645;43.068;25.610;2023-05-20T14:51:05;15.00;99.90
70986;DHT22;58645;43.068;25.610;2023-05-20T14:53:31;15.00;99.90
70986;DHT22;58645;43.068;25.610;2023-05-20T14:55:57;14.90;99.90
70986;DHT22;58645;43.068;25.610;2023-05-20T14:58:22;14.70;99.90
70986;DHT22;58645;43.068;25.610;2023-05-20T15:00:48;14.70;99.90
70986;DHT22;58645;43.068;25.610;2023-05-20T15:03:14;14.60;99.90
70986;DHT22;58645;43.068;25.610;2023-05-20T15:05:39;14.70;99.90
70986;DHT22;58645;43.068;25.610;2023-05-20T15:08:06;14.70;99.90
70986;DHT22;58645;43.068;25.610;2023-05-20T15:10:32;14.70;99.90
70986;DHT22;58645;43.068;25.610;2023-05-20T15:12:57;14.70;99.90
70986;DHT22;58645;43.068;25.610;2023-05-20T15:15:23;14.70;99.90
70986;DHT22;58645;43.068;25.610;2023-05-20T15:17:49;14.70;99.90
70986;DHT22;58645;43.068;25.610;2023-05-20T15:20:15;14.70;99.90